createdAt,value
2023-01-25T00:04:37.868Z,4.30
2023-01-25T00:09:39.265Z,4.97
2023-01-25T00:14:40.671Z,4.47
2023-01-25T00:19:42.101Z,4.20
2023-01-25T00:24:43.507Z,4.70
2023-01-25T00:29:45.032Z,4.40
2023-01-25T00:34:46.451Z,3.83
2023-01-25T00:39:47.902Z,4.13
2023-01-25T00:44:49.295Z,5.20
2023-01-25T00:49:50.707Z,4.13
2023-01-25T00:54:52.135Z,5.00
2023-01-25T00:59:53.571Z,5.13
2023-01-25T01:04:55.015Z,4.70
2023-01-25T01:09:56.473Z,4.47
2023-01-25T01:14:57.922Z,4.20
2023-01-25T01:19:59.341Z,4.53
2023-01-25T01:25:00.743Z,4.70
2023-01-25T01:30:02.166Z,4.00
2023-01-25T01:35:03.573Z,4.60
2023-01-25T01:40:04.985Z,4.23
2023-01-25T01:45:06.708Z,4.33
2023-01-25T01:50:08.303Z,3.50
2023-01-25T01:55:10.056Z,4.00
2023-01-25T02:00:11.684Z,4.47
2023-01-25T02:05:13.100Z,4.00
2023-01-25T02:10:14.494Z,4.20
2023-01-25T02:15:15.932Z,4.70
2023-01-25T02:20:17.360Z,4.27
2023-01-25T02:25:18.769Z,4.63
2023-01-25T02:30:20.172Z,3.80
2023-01-25T02:35:21.599Z,4.40
2023-01-25T02:40:23.038Z,4.57
2023-01-25T02:45:24.453Z,4.60
2023-01-25T02:50:25.844Z,5.00
2023-01-25T02:55:27.255Z,4.20
2023-01-25T03:00:28.682Z,4.20
2023-01-25T03:05:30.090Z,4.23
2023-01-25T03:10:31.513Z,4.37
2023-01-25T03:15:32.991Z,4.03
2023-01-25T03:20:34.412Z,3.93
2023-01-25T03:25:35.832Z,3.83
2023-01-25T03:30:37.256Z,4.10
2023-01-25T03:35:38.671Z,4.70
2023-01-25T03:40:40.067Z,4.30
2023-01-25T03:45:41.498Z,4.03
2023-01-25T03:50:42.941Z,4.27
2023-01-25T03:55:44.432Z,3.90
2023-01-25T04:00:45.869Z,3.77
2023-01-25T04:05:47.292Z,4.40
2023-01-25T04:10:48.689Z,3.70
2023-01-25T04:15:50.108Z,4.03
2023-01-25T04:20:51.549Z,4.20
2023-01-25T04:25:52.975Z,3.97
2023-01-25T04:30:54.387Z,4.00
2023-01-25T04:35:55.797Z,4.40
2023-01-25T04:40:57.199Z,4.30
2023-01-25T04:45:58.628Z,4.23
2023-01-25T04:51:00.050Z,5.20
2023-01-25T04:56:01.486Z,4.50
2023-01-25T05:01:02.959Z,4.57
2023-01-25T05:06:04.401Z,4.50
2023-01-25T05:11:05.825Z,5.17
2023-01-25T05:16:08.962Z,4.23
2023-01-25T05:21:10.509Z,5.40
2023-01-25T05:26:11.918Z,4.17
2023-01-25T05:31:13.351Z,4.53
2023-01-25T05:36:14.799Z,5.07
2023-01-25T05:41:16.206Z,4.37
2023-01-25T05:46:17.674Z,4.40
2023-01-25T05:51:19.114Z,4.93
2023-01-25T05:56:20.605Z,4.40
2023-01-25T06:01:22.074Z,5.37
2023-01-25T06:06:23.647Z,4.43
2023-01-25T06:11:25.099Z,4.50
2023-01-25T06:16:26.522Z,4.10
2023-01-25T06:21:27.925Z,5.33
2023-01-25T06:26:29.336Z,4.83
2023-01-25T06:31:30.799Z,5.10
2023-01-25T06:36:32.245Z,5.43
2023-01-25T06:41:34.829Z,4.70
2023-01-25T06:46:36.261Z,4.40
2023-01-25T06:51:37.687Z,5.30
2023-01-25T06:56:39.096Z,5.50
2023-01-25T07:01:40.663Z,5.40
2023-01-25T07:06:42.097Z,5.63
2023-01-25T07:11:43.524Z,5.33
2023-01-25T07:16:44.932Z,6.10
2023-01-25T07:21:46.337Z,6.97
2023-01-25T07:26:47.775Z,6.10
2023-01-25T07:31:49.255Z,5.50
2023-01-25T07:36:50.774Z,5.67
2023-01-25T07:41:52.195Z,6.93
2023-01-25T07:46:53.603Z,5.60
2023-01-25T07:51:55.017Z,6.37
2023-01-25T07:56:56.441Z,7.53
2023-01-25T08:01:58.001Z,7.40
2023-01-25T08:06:59.409Z,7.13
2023-01-25T08:12:00.809Z,7.63
2023-01-25T08:17:02.203Z,8.70
2023-01-25T08:22:03.600Z,8.30
2023-01-25T08:27:05.048Z,7.40
2023-01-25T08:32:06.517Z,7.13
2023-01-25T08:37:07.985Z,6.40
2023-01-25T08:42:09.433Z,6.50
2023-01-25T08:47:10.851Z,6.50
2023-01-25T08:52:12.261Z,6.57
2023-01-25T08:57:13.667Z,6.10
2023-01-25T09:02:15.119Z,6.00
2023-01-25T09:07:16.564Z,6.10
2023-01-25T09:12:17.975Z,6.27
2023-01-25T09:17:19.408Z,6.07
2023-01-25T09:22:20.875Z,5.20
2023-01-25T09:27:22.295Z,5.70
2023-01-25T09:32:23.850Z,6.70
2023-01-25T09:37:25.651Z,6.47
2023-01-25T09:42:27.084Z,6.10
2023-01-25T09:47:28.548Z,5.53
2023-01-25T09:52:29.968Z,6.70
2023-01-25T09:57:31.369Z,6.10
2023-01-25T10:02:32.848Z,5.50
2023-01-25T10:07:34.348Z,6.07
2023-01-25T10:12:35.758Z,5.30
2023-01-25T10:17:37.198Z,5.67
2023-01-25T10:22:38.617Z,5.60
2023-01-25T10:27:40.016Z,4.87
2023-01-25T10:32:51.057Z,5.70
2023-01-25T10:37:57.037Z,5.17
2023-01-25T10:42:58.440Z,4.80
2023-01-25T10:47:59.846Z,5.40
2023-01-25T10:53:01.249Z,4.63
2023-01-25T10:58:02.658Z,5.50
2023-01-25T11:03:04.156Z,5.13
2023-01-25T11:08:05.620Z,6.40
2023-01-25T11:13:07.067Z,5.10
2023-01-25T11:18:08.484Z,5.83
2023-01-25T11:23:09.881Z,5.57
2023-01-25T11:28:11.330Z,6.20
2023-01-25T11:33:12.899Z,4.73
2023-01-25T11:38:14.343Z,4.87
2023-01-25T11:43:15.774Z,4.97
2023-01-25T11:48:17.174Z,5.90
2023-01-25T11:53:18.568Z,5.93
2023-01-25T11:58:19.963Z,5.67
2023-01-25T12:03:21.422Z,16.93
2023-01-25T12:08:22.829Z,30.20
2023-01-25T12:13:24.310Z,46.23
2023-01-25T12:18:25.749Z,39.30
2023-01-25T12:23:27.161Z,30.40
2023-01-25T12:28:28.694Z,27.27
2023-01-25T12:33:31.527Z,22.63
2023-01-25T12:38:33.058Z,20.90
2023-01-25T12:43:34.495Z,19.50
2023-01-25T12:48:35.914Z,17.20
2023-01-25T12:53:37.311Z,15.93
2023-01-25T12:58:38.844Z,16.13
2023-01-25T13:03:40.251Z,14.33
2023-01-25T13:08:41.692Z,14.77
2023-01-25T13:13:43.183Z,14.27
2023-01-25T13:18:44.727Z,13.27
2023-01-25T13:23:46.166Z,13.47
2023-01-25T13:28:50.694Z,14.33
2023-01-25T13:33:52.102Z,12.80
2023-01-25T13:38:53.529Z,11.90
2023-01-25T13:43:54.938Z,12.30
2023-01-25T13:48:56.393Z,11.00
2023-01-25T13:53:57.824Z,12.00
2023-01-25T13:58:59.236Z,11.60
2023-01-25T14:04:00.647Z,11.10
2023-01-25T14:09:02.051Z,12.13
2023-01-25T14:14:03.467Z,11.27
2023-01-25T14:19:04.918Z,11.30
2023-01-25T14:24:06.384Z,12.30
2023-01-25T14:29:11.543Z,11.30
2023-01-25T14:34:15.637Z,11.00
2023-01-25T14:39:17.062Z,11.53
2023-01-25T14:44:18.477Z,10.73
2023-01-25T14:49:19.880Z,11.03
2023-01-25T14:54:21.304Z,10.63
2023-01-25T14:59:22.730Z,11.53
2023-01-25T15:04:24.136Z,11.30
2023-01-25T15:09:25.536Z,10.93
2023-01-25T15:14:26.963Z,11.50
2023-01-25T15:19:28.371Z,11.40
2023-01-25T15:24:29.778Z,11.00
2023-01-25T15:29:31.224Z,12.20
2023-01-25T15:34:32.622Z,12.83
2023-01-25T15:39:34.027Z,11.43
2023-01-25T15:44:35.446Z,11.50
2023-01-25T15:49:36.864Z,10.50
2023-01-25T15:54:39.552Z,11.40
2023-01-25T15:59:42.277Z,10.37
2023-01-25T16:04:43.705Z,11.33
2023-01-25T16:09:45.109Z,10.13
2023-01-25T16:14:46.517Z,11.37
2023-01-25T16:19:47.952Z,11.87
2023-01-25T16:24:49.360Z,11.40
2023-01-25T16:29:50.760Z,11.93
2023-01-25T16:34:52.169Z,11.40
2023-01-25T16:39:53.589Z,13.70
2023-01-25T16:44:54.998Z,15.37
2023-01-25T16:49:56.444Z,16.80
2023-01-25T16:54:57.995Z,15.00
2023-01-25T17:00:00.985Z,15.27
2023-01-25T17:05:03.773Z,15.70
2023-01-25T17:10:05.186Z,14.93
2023-01-25T17:15:06.587Z,16.07
2023-01-25T17:20:08.208Z,16.37
2023-01-25T17:25:09.698Z,15.33
2023-01-25T17:30:11.500Z,15.63
2023-01-25T17:35:13.033Z,14.67
2023-01-25T17:40:14.434Z,15.93
2023-01-25T17:45:15.882Z,16.03
2023-01-25T17:50:17.384Z,16.87
2023-01-25T17:55:18.869Z,19.10
2023-01-25T18:00:20.278Z,20.97
2023-01-25T18:05:21.683Z,26.00
2023-01-25T18:10:23.090Z,21.90
2023-01-25T18:15:24.501Z,20.97
2023-01-25T18:20:25.904Z,21.63
2023-01-25T18:25:27.317Z,19.60
2023-01-25T18:30:28.754Z,21.93
2023-01-25T18:35:30.160Z,26.10
2023-01-25T18:40:31.560Z,27.97
2023-01-25T18:45:33.032Z,29.93
2023-01-25T18:50:34.445Z,24.63
2023-01-25T18:55:35.846Z,31.27
2023-01-25T19:00:37.261Z,24.17
2023-01-25T19:05:38.668Z,26.90
2023-01-25T19:10:40.073Z,26.20
2023-01-25T19:15:41.494Z,23.30
2023-01-25T19:20:42.936Z,26.17
2023-01-25T19:25:45.156Z,25.80
2023-01-25T19:30:46.578Z,26.57
2023-01-25T19:35:47.981Z,24.60
2023-01-25T19:40:49.388Z,26.23
2023-01-25T19:45:50.791Z,25.37
2023-01-25T19:50:52.245Z,26.67
2023-01-25T19:55:53.780Z,22.50
2023-01-25T20:00:55.223Z,27.50
2023-01-25T20:05:56.639Z,24.60
2023-01-25T20:10:58.050Z,30.13
2023-01-25T20:15:59.482Z,25.37
2023-01-25T20:21:00.913Z,28.73
2023-01-25T20:26:02.336Z,33.07
2023-01-25T20:31:04.047Z,29.70
2023-01-25T20:36:05.679Z,28.03
2023-01-25T20:41:07.116Z,30.97
2023-01-25T20:46:08.554Z,29.57
2023-01-25T20:51:09.993Z,32.73
2023-01-25T20:56:11.420Z,33.20
2023-01-25T21:01:12.946Z,28.67
2023-01-25T21:06:14.381Z,30.33
2023-01-25T21:11:15.801Z,30.03
2023-01-25T21:16:17.259Z,29.03
2023-01-25T21:21:18.803Z,29.80
2023-01-25T21:26:20.262Z,27.30
2023-01-25T21:31:21.935Z,28.47
2023-01-25T21:36:23.377Z,24.93
2023-01-25T21:41:24.838Z,26.03
2023-01-25T21:46:26.278Z,25.90
2023-01-25T21:51:27.691Z,33.90
2023-01-25T21:56:29.254Z,27.10
2023-01-25T22:01:30.720Z,25.97
2023-01-25T22:06:32.195Z,25.60
2023-01-25T22:11:33.665Z,23.90
2023-01-25T22:16:35.242Z,26.93
2023-01-25T22:21:36.664Z,28.13
2023-01-25T22:26:38.068Z,27.70
2023-01-25T22:31:39.932Z,29.93
2023-01-25T22:36:41.427Z,30.57
2023-01-25T22:41:42.873Z,30.47
2023-01-25T22:46:44.315Z,29.30
2023-01-25T22:51:45.785Z,26.80
2023-01-25T22:56:47.301Z,25.60
2023-01-25T23:01:48.708Z,28.10
2023-01-25T23:06:50.120Z,25.73
2023-01-25T23:11:51.564Z,26.20
2023-01-25T23:16:53.000Z,27.83
2023-01-25T23:21:54.404Z,26.13
2023-01-25T23:26:55.807Z,26.17
2023-01-25T23:31:57.320Z,26.17
2023-01-25T23:36:58.810Z,24.63
2023-01-25T23:42:00.241Z,24.70
2023-01-25T23:47:01.749Z,26.37
2023-01-25T23:52:03.270Z,26.37
2023-01-25T23:57:04.681Z,25.37
